Time;durP1;ratioP1;P1;durP2;ratioP2;P2;SDS_P1;SDS_P2;PMS_P1;PMS_P2;Temp;Humidity;BMP_temperature;BMP_pressure;BME280_temperature;BME280_humidity;BME280_pressure;Samples;Min_cycle;Max_cycle;Signal;HPM_P1;HPM_P2
2021/12/08 00:18:59;;;;;;;6.22;5.62;;;;;;;;;;4729707;29;20106;-61
2021/12/08 00:21:27;;;;;;;5.95;5.37;;;;;;;;;;4137652;34;20115;-60
2021/12/08 00:23:53;;;;;;;6.10;5.50;;;;;;;;;;4128480;34;20125;-60
2021/12/08 00:26:19;;;;;;;8.00;6.50;;;;;;;;;;4151074;34;20121;-58
2021/12/08 00:28:45;;;;;;;6.72;6.00;;;;;;;;;;4150916;34;20459;-57
2021/12/08 00:31:11;;;;;;;8.65;6.25;;;;;;;;;;4151074;34;20243;-60
2021/12/08 00:33:38;;;;;;;7.43;5.57;;;;;;;;;;4151044;34;20107;-60
2021/12/08 00:36:06;;;;;;;6.25;5.65;;;;;;;;;;4151055;34;20171;-61
2021/12/08 00:38:32;;;;;;;7.05;6.10;;;;;;;;;;4150953;34;20096;-61
2021/12/08 00:40:59;;;;;;;6.35;5.68;;;;;;;;;;4150896;34;20114;-62
2021/12/08 00:43:25;;;;;;;8.88;6.35;;;;;;;;;;4150931;34;20480;-61
2021/12/08 00:45:52;;;;;;;6.93;5.82;;;;;;;;;;4150962;34;20563;-61
2021/12/08 00:48:18;;;;;;;8.60;6.20;;;;;;;;;;4150847;34;20211;-61
2021/12/08 00:50:44;;;;;;;8.05;6.05;;;;;;;;;;4150910;34;20118;-61
2021/12/08 00:53:10;;;;;;;7.15;6.18;;;;;;;;;;4150908;34;20109;-61
2021/12/08 00:55:37;;;;;;;7.85;5.95;;;;;;;;;;4150931;34;20111;-61
2021/12/08 00:58:03;;;;;;;9.25;5.80;;;;;;;;;;4150679;34;20104;-61
2021/12/08 01:00:33;;;;;;;7.57;5.90;;;;;;;;;;4150818;34;20515;-61
2021/12/08 01:02:59;;;;;;;7.35;5.68;;;;;;;;;;4150726;34;20154;-61
2021/12/08 01:05:28;;;;;;;7.50;5.90;;;;;;;;;;4150750;34;20441;-61
2021/12/08 01:07:55;;;;;;;6.35;5.40;;;;;;;;;;4150759;34;20208;-61
2021/12/08 01:10:23;;;;;;;6.90;5.87;;;;;;;;;;4138081;34;20110;-61
2021/12/08 01:12:50;;;;;;;11.90;6.35;;;;;;;;;;4150711;34;20207;-61
2021/12/08 01:15:17;;;;;;;7.78;5.87;;;;;;;;;;4150765;34;20502;-61
2021/12/08 01:17:43;;;;;;;7.80;5.60;;;;;;;;;;4150787;34;20526;-61
2021/12/08 01:20:12;;;;;;;7.45;5.75;;;;;;;;;;4150932;34;20103;-62
2021/12/08 01:22:38;;;;;;;7.75;6.53;;;;;;;;;;4150589;34;20491;-61
2021/12/08 01:25:05;;;;;;;7.25;6.50;;;;;;;;;;4150822;34;20135;-61
2021/12/08 01:27:32;;;;;;;6.57;5.68;;;;;;;;;;4150606;34;20123;-61
2021/12/08 01:29:58;;;;;;;7.62;5.78;;;;;;;;;;4150750;34;20115;-61
2021/12/08 01:32:25;;;;;;;6.32;5.72;;;;;;;;;;4150603;34;20126;-61
2021/12/08 01:34:52;;;;;;;6.25;5.65;;;;;;;;;;4150656;34;20112;-61
2021/12/08 01:37:19;;;;;;;9.13;6.43;;;;;;;;;;4150557;34;20219;-61
2021/12/08 01:39:45;;;;;;;7.28;6.57;;;;;;;;;;4150609;34;20119;-61
2021/12/08 01:42:17;;;;;;;7.03;6.28;;;;;;;;;;4150470;34;20111;-61
2021/12/08 01:47:29;;;;;;;6.90;6.05;;;;;;;;;;4150435;34;20506;-61
2021/12/08 01:49:55;;;;;;;7.15;6.45;;;;;;;;;;4150384;34;20204;-61
2021/12/08 01:52:21;;;;;;;6.95;5.93;;;;;;;;;;4150410;34;20211;-61
2021/12/08 01:54:47;;;;;;;5.78;5.18;;;;;;;;;;4150309;34;20444;-61
2021/12/08 01:57:14;;;;;;;6.30;5.68;;;;;;;;;;4150359;34;20126;-61
2021/12/08 01:59:40;;;;;;;8.07;6.75;;;;;;;;;;4150431;34;20107;-61
2021/12/08 02:02:06;;;;;;;7.22;6.53;;;;;;;;;;4150288;34;20132;-61
2021/12/08 02:04:32;;;;;;;6.70;6.00;;;;;;;;;;4150199;34;20455;-62
2021/12/08 02:07:00;;;;;;;8.73;6.55;;;;;;;;;;4150310;34;20143;-62
2021/12/08 02:09:26;;;;;;;7.05;6.12;;;;;;;;;;4149903;34;20111;-62
2021/12/08 02:11:55;;;;;;;7.37;5.85;;;;;;;;;;4149961;34;20134;-62
2021/12/08 02:14:22;;;;;;;7.18;5.93;;;;;;;;;;4150314;34;20234;-63
2021/12/08 02:16:50;;;;;;;7.80;6.32;;;;;;;;;;4150236;34;20277;-61
2021/12/08 02:19:25;;;;;;;7.03;5.62;;;;;;;;;;4150008;34;20530;-62
2021/12/08 02:21:54;;;;;;;6.40;5.80;;;;;;;;;;4150121;34;20114;-61
2021/12/08 02:24:21;;;;;;;6.07;5.07;;;;;;;;;;4150213;34;20553;-62
2021/12/08 02:26:50;;;;;;;6.20;5.60;;;;;;;;;;4150429;34;20570;-62
2021/12/08 02:29:25;;;;;;;6.00;5.30;;;;;;;;;;4150014;34;20138;-61
2021/12/08 02:32:08;;;;;;;8.63;4.45;;;;;;;;;;4150094;34;20115;-62
2021/12/08 02:48:19;;;;;;;6.15;5.55;;;;;;;;;;4137322;34;20127;-62
2021/12/08 02:50:45;;;;;;;5.97;5.40;;;;;;;;;;4137397;34;20216;-62
2021/12/08 02:53:13;;;;;;;5.90;5.32;;;;;;;;;;4150085;34;20099;-64
2021/12/08 02:55:40;;;;;;;6.50;5.47;;;;;;;;;;4149742;34;20107;-63
2021/12/08 02:58:06;;;;;;;6.12;5.05;;;;;;;;;;4149816;34;20206;-63
2021/12/08 03:00:39;;;;;;;6.18;5.57;;;;;;;;;;4137449;34;20118;-63
2021/12/08 03:03:05;;;;;;;7.07;5.87;;;;;;;;;;4149681;34;20106;-63
2021/12/08 03:05:32;;;;;;;6.05;5.05;;;;;;;;;;4149696;34;20111;-63
2021/12/08 03:07:58;;;;;;;5.90;5.28;;;;;;;;;;4149630;34;20091;-63
2021/12/08 03:10:27;;;;;;;8.00;5.25;;;;;;;;;;4149629;34;20122;-63
2021/12/08 03:12:53;;;;;;;6.40;5.80;;;;;;;;;;4137035;34;20123;-63
2021/12/08 03:15:19;;;;;;;6.15;5.55;;;;;;;;;;4149493;34;20239;-63
2021/12/08 03:17:45;;;;;;;6.75;6.05;;;;;;;;;;4149618;34;20464;-63
2021/12/08 03:20:15;;;;;;;6.45;5.85;;;;;;;;;;4149611;34;20216;-63
2021/12/08 03:22:46;;;;;;;6.70;6.00;;;;;;;;;;4150186;34;20208;-63
2021/12/08 03:25:16;;;;;;;7.57;6.47;;;;;;;;;;4151541;34;20112;-64
2021/12/08 03:27:50;;;;;;;9.30;6.82;;;;;;;;;;4151666;34;20113;-62
2021/12/08 03:30:30;;;;;;;8.55;6.35;;;;;;;;;;4151421;34;20115;-62
2021/12/08 03:32:56;;;;;;;6.87;6.15;;;;;;;;;;4151545;34;20115;-62
2021/12/08 03:35:23;;;;;;;7.12;6.25;;;;;;;;;;4151375;34;20107;-63
2021/12/08 03:37:49;;;;;;;6.28;5.47;;;;;;;;;;4151490;34;20511;-63
2021/12/08 03:40:21;;;;;;;7.60;6.40;;;;;;;;;;4151432;34;20173;-62
2021/12/08 03:42:49;;;;;;;6.95;6.20;;;;;;;;;;4138786;34;20114;-62
2021/12/08 03:45:23;;;;;;;8.75;6.80;;;;;;;;;;4151399;34;20540;-62
2021/12/08 03:47:58;;;;;;;7.12;5.85;;;;;;;;;;4151402;34;20121;-63
2021/12/08 03:50:25;;;;;;;8.15;6.35;;;;;;;;;;4151398;34;20130;-62
2021/12/08 03:52:51;;;;;;;7.95;6.47;;;;;;;;;;4151282;34;20107;-62
2021/12/08 03:55:17;;;;;;;6.90;6.20;;;;;;;;;;4138762;34;20211;-63
2021/12/08 03:57:44;;;;;;;7.20;6.32;;;;;;;;;;4138653;34;20138;-63
2021/12/08 04:00:13;;;;;;;6.62;5.95;;;;;;;;;;4151483;34;20626;-63
2021/12/08 04:02:39;;;;;;;7.20;6.43;;;;;;;;;;4138853;34;20185;-62
2021/12/08 04:05:06;;;;;;;7.40;6.47;;;;;;;;;;4151390;34;20119;-62
2021/12/08 04:07:33;;;;;;;7.25;6.10;;;;;;;;;;4151118;34;20125;-62
2021/12/08 04:10:00;;;;;;;7.47;6.40;;;;;;;;;;4151256;34;20126;-62
2021/12/08 04:12:26;;;;;;;6.87;6.15;;;;;;;;;;4151222;34;20099;-62
2021/12/08 04:14:56;;;;;;;8.07;6.93;;;;;;;;;;4151291;34;20107;-62
2021/12/08 04:17:35;;;;;;;7.78;6.57;;;;;;;;;;4151234;34;20578;-62
2021/12/08 04:20:09;;;;;;;7.65;6.10;;;;;;;;;;4150961;34;20212;-62
2021/12/08 04:22:39;;;;;;;7.62;6.53;;;;;;;;;;4151010;34;20122;-62
2021/12/08 04:25:09;;;;;;;6.62;5.93;;;;;;;;;;4151131;34;20108;-62
2021/12/08 04:27:37;;;;;;;7.25;6.50;;;;;;;;;;4151307;34;20110;-64
2021/12/08 04:30:08;;;;;;;6.43;5.80;;;;;;;;;;4151230;34;20211;-63
2021/12/08 04:32:35;;;;;;;6.90;6.07;;;;;;;;;;4150902;34;20207;-63
2021/12/08 04:35:09;;;;;;;7.40;6.12;;;;;;;;;;4150788;34;20111;-63
2021/12/08 04:37:38;;;;;;;8.00;6.40;;;;;;;;;;4151084;34;20107;-63
2021/12/08 04:40:20;;;;;;;6.68;5.90;;;;;;;;;;4150871;34;20146;-63
2021/12/08 04:45:34;;;;;;;7.45;5.62;;;;;;;;;;4150857;34;20119;-63
2021/12/08 04:48:19;;;;;;;7.37;6.07;;;;;;;;;;4138435;34;20121;-63
2021/12/08 05:02:15;;;;;;;8.15;6.22;;;;;;;;;;4150836;34;20528;-63
2021/12/08 05:09:47;;;;;;;6.55;5.87;;;;;;;;;;4150741;34;20456;-63
2021/12/08 05:12:13;;;;;;;7.93;5.90;;;;;;;;;;4150669;34;20525;-63
2021/12/08 05:14:39;;;;;;;6.00;5.37;;;;;;;;;;4150919;34;20185;-63
2021/12/08 05:17:14;;;;;;;7.07;6.37;;;;;;;;;;4150846;34;20138;-63
2021/12/08 05:19:41;;;;;;;7.55;5.15;;;;;;;;;;4150472;34;20184;-62
2021/12/08 05:22:21;;;;;;;5.82;5.30;;;;;;;;;;4150558;34;20554;-62
2021/12/08 05:24:50;;;;;;;7.70;6.57;;;;;;;;;;4137956;34;20092;-62
2021/12/08 05:27:22;;;;;;;7.35;5.75;;;;;;;;;;4150656;34;20454;-62
2021/12/08 05:30:05;;;;;;;9.65;6.32;;;;;;;;;;4150652;34;20506;-62
2021/12/08 05:32:31;;;;;;;6.57;5.72;;;;;;;;;;4150419;34;20110;-61
2021/12/08 05:34:57;;;;;;;7.28;6.53;;;;;;;;;;4137830;34;20117;-60
2021/12/08 05:37:24;;;;;;;8.88;5.90;;;;;;;;;;4150462;34;20472;-61
2021/12/08 05:39:52;;;;;;;7.50;5.75;;;;;;;;;;4150467;34;20149;-61
2021/12/08 05:42:21;;;;;;;7.60;6.12;;;;;;;;;;4137795;34;20099;-61
2021/12/08 05:44:48;;;;;;;8.93;8.00;;;;;;;;;;4149575;34;20111;-61
2021/12/08 05:47:17;;;;;;;7.57;6.75;;;;;;;;;;4126805;34;20106;-61
2021/12/08 05:49:45;;;;;;;6.97;6.28;;;;;;;;;;4150294;34;20194;-61
2021/12/08 05:52:11;;;;;;;6.78;6.03;;;;;;;;;;4137786;34;20090;-63
2021/12/08 05:54:40;;;;;;;7.60;6.80;;;;;;;;;;4137778;34;20207;-63
2021/12/08 05:57:26;;;;;;;8.45;6.57;;;;;;;;;;4115380;34;20134;-63
2021/12/08 05:59:53;;;;;;;7.87;6.97;;;;;;;;;;4150247;34;20122;-63
2021/12/08 06:02:26;;;;;;;7.25;6.45;;;;;;;;;;4150245;34;20115;-63
2021/12/08 06:04:53;;;;;;;7.47;6.60;;;;;;;;;;4150326;34;20210;-63
2021/12/08 06:07:21;;;;;;;7.72;6.97;;;;;;;;;;4137670;34;20103;-64
2021/12/08 06:09:55;;;;;;;8.98;8.05;;;;;;;;;;4150021;34;20115;-63
2021/12/08 06:12:22;;;;;;;12.60;8.95;;;;;;;;;;4150192;34;20103;-63
2021/12/08 06:14:54;;;;;;;13.75;9.70;;;;;;;;;;4150218;34;20474;-63
2021/12/08 06:17:22;;;;;;;12.57;9.30;;;;;;;;;;4137513;34;20451;-63
2021/12/08 06:19:48;;;;;;;11.30;8.43;;;;;;;;;;4149904;34;20100;-63
2021/12/08 06:22:16;;;;;;;10.95;7.72;;;;;;;;;;4137671;34;20122;-62
2021/12/08 06:24:43;;;;;;;9.77;8.40;;;;;;;;;;4149979;34;20101;-62
2021/12/08 06:27:10;;;;;;;8.93;7.43;;;;;;;;;;4126483;34;20583;-62
2021/12/08 06:29:36;;;;;;;8.00;6.95;;;;;;;;;;4137480;34;20199;-62
2021/12/08 06:32:05;;;;;;;9.27;7.10;;;;;;;;;;4150053;34;20126;-62
2021/12/08 06:34:31;;;;;;;9.68;6.68;;;;;;;;;;4150224;34;20107;-62
2021/12/08 06:37:04;;;;;;;7.87;6.65;;;;;;;;;;4149805;34;20110;-62
2021/12/08 06:39:38;;;;;;;10.00;7.57;;;;;;;;;;4149866;34;20122;-61
2021/12/08 06:42:11;;;;;;;7.37;6.53;;;;;;;;;;4149962;34;20598;-62
2021/12/08 06:44:40;;;;;;;7.97;7.12;;;;;;;;;;4149695;34;20127;-62
2021/12/08 06:47:09;;;;;;;8.15;7.15;;;;;;;;;;4149898;34;20099;-63
2021/12/08 06:49:35;;;;;;;8.63;7.03;;;;;;;;;;4149903;34;20213;-63
2021/12/08 06:52:08;;;;;;;8.80;7.43;;;;;;;;;;4137168;34;20133;-65
2021/12/08 06:54:40;;;;;;;8.85;6.75;;;;;;;;;;4149800;34;20110;-64
2021/12/08 06:57:18;;;;;;;8.93;7.32;;;;;;;;;;4150911;34;20107;-63
2021/12/08 07:00:01;;;;;;;9.68;7.35;;;;;;;;;;4151896;34;20119;-63
2021/12/08 07:02:51;;;;;;;7.72;6.90;;;;;;;;;;4138907;34;20196;-63
2021/12/08 07:05:29;;;;;;;7.95;6.80;;;;;;;;;;4146724;34;20722;-63
2021/12/08 07:07:59;;;;;;;7.70;6.62;;;;;;;;;;4151748;34;20103;-63
2021/12/08 07:10:30;;;;;;;9.77;6.72;;;;;;;;;;4139373;34;20189;-64
2021/12/08 07:13:11;;;;;;;9.25;6.93;;;;;;;;;;4128176;34;20114;-63
2021/12/08 07:15:41;;;;;;;8.02;7.07;;;;;;;;;;4151510;34;20619;-63
2021/12/08 07:18:14;;;;;;;9.35;7.80;;;;;;;;;;4151617;34;20199;-63
2021/12/08 07:20:47;;;;;;;8.48;7.00;;;;;;;;;;4151483;34;20186;-64
2021/12/08 07:23:36;;;;;;;7.70;6.82;;;;;;;;;;4151532;34;20138;-63
2021/12/08 07:26:07;;;;;;;7.60;6.78;;;;;;;;;;4151548;34;20220;-63
2021/12/08 07:28:33;;;;;;;6.82;5.68;;;;;;;;;;4151734;34;20524;-63
2021/12/08 07:31:22;;;;;;;10.23;7.30;;;;;;;;;;4151426;34;20168;-65
2021/12/08 07:33:49;;;;;;;8.10;6.97;;;;;;;;;;4144126;34;20092;-64
2021/12/08 07:36:17;;;;;;;10.63;7.30;;;;;;;;;;4151814;34;20114;-64
2021/12/08 07:38:47;;;;;;;9.27;7.53;;;;;;;;;;4151539;34;20572;-65
2021/12/08 07:41:24;;;;;;;8.60;7.53;;;;;;;;;;4151633;34;20139;-64
2021/12/08 07:43:54;;;;;;;8.10;7.20;;;;;;;;;;4151867;34;20226;-65
2021/12/08 07:46:46;;;;;;;8.45;7.10;;;;;;;;;;4151425;34;20540;-64
2021/12/08 07:49:24;;;;;;;7.47;6.50;;;;;;;;;;4128045;34;20122;-66
2021/12/08 07:51:59;;;;;;;8.07;6.95;;;;;;;;;;4151393;34;20123;-63
2021/12/08 07:54:25;;;;;;;9.68;7.65;;;;;;;;;;4151264;34;20191;-63
2021/12/08 07:56:56;;;;;;;7.68;6.55;;;;;;;;;;4151585;34;20102;-64
2021/12/08 07:59:23;;;;;;;8.73;7.45;;;;;;;;;;4151530;34;20113;-63
2021/12/08 08:01:52;;;;;;;7.93;6.80;;;;;;;;;;4151320;34;20088;-63
2021/12/08 08:04:22;;;;;;;8.38;7.18;;;;;;;;;;4151312;34;20115;-64
2021/12/08 08:06:51;;;;;;;9.68;7.20;;;;;;;;;;4151062;34;20526;-64
2021/12/08 08:09:22;;;;;;;8.32;7.37;;;;;;;;;;4150604;34;20198;-63
2021/12/08 08:11:57;;;;;;;8.32;7.03;;;;;;;;;;4127781;34;20142;-64
2021/12/08 08:14:29;;;;;;;9.80;7.50;;;;;;;;;;4151187;34;20119;-64
2021/12/08 08:16:58;;;;;;;11.43;7.22;;;;;;;;;;4151480;34;20094;-64
2021/12/08 08:19:29;;;;;;;8.43;6.82;;;;;;;;;;4151122;34;20087;-64
2021/12/08 08:22:08;;;;;;;9.27;8.20;;;;;;;;;;4151090;34;20125;-64
2021/12/08 08:24:35;;;;;;;8.68;7.60;;;;;;;;;;4151079;34;20158;-64
2021/12/08 08:27:03;;;;;;;8.57;7.30;;;;;;;;;;4151019;34;20124;-64
2021/12/08 08:29:29;;;;;;;8.07;6.90;;;;;;;;;;4138563;34;20104;-64
2021/12/08 08:32:03;;;;;;;8.07;7.25;;;;;;;;;;4151109;34;20187;-62
2021/12/08 08:34:34;;;;;;;10.52;7.20;;;;;;;;;;4151195;34;20123;-65
2021/12/08 08:37:01;;;;;;;6.45;5.30;;;;;;;;;;4151147;34;20480;-63
2021/12/08 08:39:30;;;;;;;7.47;6.03;;;;;;;;;;4151102;34;20099;-62
2021/12/08 08:42:05;;;;;;;9.70;6.87;;;;;;;;;;4150931;34;20473;-63
2021/12/08 08:44:38;;;;;;;7.32;5.90;;;;;;;;;;4151163;34;20518;-62
2021/12/08 08:47:16;;;;;;;7.20;6.22;;;;;;;;;;4151002;34;20244;-63
2021/12/08 08:49:43;;;;;;;6.82;6.07;;;;;;;;;;4150785;34;20103;-63
2021/12/08 08:52:10;;;;;;;7.53;6.50;;;;;;;;;;4151158;34;20114;-62
2021/12/08 08:54:41;;;;;;;6.72;6.03;;;;;;;;;;4150794;34;20112;-63
2021/12/08 08:57:14;;;;;;;6.47;5.32;;;;;;;;;;4151144;34;20539;-62
2021/12/08 08:59:46;;;;;;;8.65;6.28;;;;;;;;;;4150720;34;20242;-61
2021/12/08 09:02:17;;;;;;;7.97;6.68;;;;;;;;;;4150871;34;20131;-62
2021/12/08 09:04:50;;;;;;;13.13;9.13;;;;;;;;;;4150839;34;20114;-63
2021/12/08 09:07:22;;;;;;;6.37;5.68;;;;;;;;;;4138259;34;20126;-63
2021/12/08 09:09:50;;;;;;;6.78;6.07;;;;;;;;;;4138180;34;20127;-62
2021/12/08 09:12:37;;;;;;;6.35;5.72;;;;;;;;;;4127019;34;20110;-63
2021/12/08 09:15:23;;;;;;;7.12;5.95;;;;;;;;;;4115805;34;20202;-63
2021/12/08 09:17:57;;;;;;;6.82;5.93;;;;;;;;;;4150513;34;20103;-63
2021/12/08 09:20:29;;;;;;;7.03;6.32;;;;;;;;;;4150489;34;20094;-63
2021/12/08 09:23:12;;;;;;;7.35;6.65;;;;;;;;;;4126726;34;20113;-62
2021/12/08 09:25:44;;;;;;;7.72;6.80;;;;;;;;;;4150866;34;20740;-62
2021/12/08 09:28:14;;;;;;;9.15;6.37;;;;;;;;;;4138127;34;20146;-62
2021/12/08 09:30:48;;;;;;;8.02;6.57;;;;;;;;;;4150625;34;20107;-62
2021/12/08 09:33:26;;;;;;;6.70;5.62;;;;;;;;;;4150561;34;20175;-62
2021/12/08 09:35:58;;;;;;;7.78;5.95;;;;;;;;;;4138109;34;20123;-62
2021/12/08 09:38:38;;;;;;;7.32;5.60;;;;;;;;;;4150451;34;20100;-62
2021/12/08 09:41:12;;;;;;;7.78;5.90;;;;;;;;;;4150544;34;20143;-62
2021/12/08 09:43:51;;;;;;;6.53;5.68;;;;;;;;;;4150538;34;20119;-62
2021/12/08 09:46:40;;;;;;;6.12;5.53;;;;;;;;;;4150257;34;20098;-62
2021/12/08 09:49:07;;;;;;;6.45;5.75;;;;;;;;;;4150603;34;20289;-62
2021/12/08 09:51:34;;;;;;;6.82;5.68;;;;;;;;;;4137853;34;20115;-62
2021/12/08 09:54:00;;;;;;;8.10;6.80;;;;;;;;;;4150543;34;20105;-62
2021/12/08 09:56:27;;;;;;;7.00;5.75;;;;;;;;;;4150326;34;20135;-63
2021/12/08 09:58:55;;;;;;;7.00;5.75;;;;;;;;;;4137857;34;20115;-63
2021/12/08 10:01:22;;;;;;;7.15;6.45;;;;;;;;;;4137694;34;20111;-63
2021/12/08 10:03:50;;;;;;;7.03;6.15;;;;;;;;;;4150333;34;20103;-63
2021/12/08 10:06:18;;;;;;;5.55;5.03;;;;;;;;;;4150163;34;20110;-63
2021/12/08 10:08:45;;;;;;;6.00;5.22;;;;;;;;;;4137986;34;20228;-63
2021/12/08 10:11:12;;;;;;;6.50;5.80;;;;;;;;;;4150560;34;20103;-62
2021/12/08 10:13:38;;;;;;;6.30;5.20;;;;;;;;;;4150234;34;20134;-62
2021/12/08 10:16:06;;;;;;;6.43;5.37;;;;;;;;;;4150117;34;20134;-62
2021/12/08 10:18:32;;;;;;;7.32;6.37;;;;;;;;;;4150068;34;20186;-65
2021/12/08 10:20:58;;;;;;;5.40;4.75;;;;;;;;;;4150140;34;20114;-64
2021/12/08 10:23:30;;;;;;;7.07;6.18;;;;;;;;;;4150157;34;20244;-63
2021/12/08 10:25:58;;;;;;;6.25;5.65;;;;;;;;;;4150115;34;20118;-63
2021/12/08 10:28:38;;;;;;;8.52;7.18;;;;;;;;;;4150229;34;20098;-63
2021/12/08 10:31:14;;;;;;;7.62;5.62;;;;;;;;;;4149609;34;20099;-63
2021/12/08 10:34:14;;;;;;;6.82;5.60;;;;;;;;;;4149967;34;20111;-63
2021/12/08 10:36:55;;;;;;;6.12;5.47;;;;;;;;;;4150056;34;20114;-62
2021/12/08 10:39:24;;;;;;;7.53;6.07;;;;;;;;;;4150257;34;20119;-62
2021/12/08 10:42:02;;;;;;;5.78;5.25;;;;;;;;;;4149886;34;20107;-61
2021/12/08 10:44:36;;;;;;;7.72;6.30;;;;;;;;;;4149920;34;20111;-62
2021/12/08 10:47:03;;;;;;;6.53;5.45;;;;;;;;;;4149970;34;20198;-63
2021/12/08 10:54:43;;;;;;;6.97;6.15;;;;;;;;;;4149784;34;20135;-65
2021/12/08 10:57:32;;;;;;;7.75;5.72;;;;;;;;;;4137291;34;20107;-64
2021/12/08 11:00:16;;;;;;;6.32;5.60;;;;;;;;;;4149944;34;20112;-64
2021/12/08 11:02:52;;;;;;;7.57;5.65;;;;;;;;;;4149773;34;20557;-64
2021/12/08 11:05:24;;;;;;;6.82;5.40;;;;;;;;;;4137394;34;20103;-62
2021/12/08 11:08:13;;;;;;;7.80;5.95;;;;;;;;;;4149900;34;20190;-62
2021/12/08 11:11:06;;;;;;;6.35;5.75;;;;;;;;;;4149706;34;20579;-63
2021/12/08 11:13:36;;;;;;;6.55;5.95;;;;;;;;;;4126027;34;20208;-62
2021/12/08 11:16:07;;;;;;;6.25;5.40;;;;;;;;;;4149608;34;20111;-63
2021/12/08 11:18:38;;;;;;;7.35;6.03;;;;;;;;;;4149572;34;20103;-61
2021/12/08 11:21:29;;;;;;;6.32;5.65;;;;;;;;;;4149611;34;20130;-61
2021/12/08 11:23:57;;;;;;;6.95;5.93;;;;;;;;;;4149511;34;20100;-61
2021/12/08 11:26:25;;;;;;;7.30;6.57;;;;;;;;;;4149418;34;20487;-62
2021/12/08 11:29:15;;;;;;;7.87;6.85;;;;;;;;;;4149387;34;20201;-61
2021/12/08 11:31:48;;;;;;;6.97;6.15;;;;;;;;;;4144286;34;20436;-61
2021/12/08 11:34:21;;;;;;;8.10;6.75;;;;;;;;;;4149770;34;20200;-61
2021/12/08 11:36:54;;;;;;;7.60;6.10;;;;;;;;;;4149392;34;20118;-61
2021/12/08 11:39:43;;;;;;;10.85;5.85;;;;;;;;;;4149383;34;20130;-61
2021/12/08 11:42:17;;;;;;;7.47;5.60;;;;;;;;;;4143999;34;20492;-61
2021/12/08 11:44:48;;;;;;;6.85;5.72;;;;;;;;;;4151199;34;20096;-61
2021/12/08 11:47:24;;;;;;;7.70;6.22;;;;;;;;;;4151707;34;20203;-61
2021/12/08 11:49:53;;;;;;;6.15;5.47;;;;;;;;;;4151562;34;20126;-61
2021/12/08 11:52:23;;;;;;;7.05;5.40;;;;;;;;;;4151582;34;20176;-61
2021/12/08 11:54:49;;;;;;;6.78;5.85;;;;;;;;;;4151365;34;20122;-61
2021/12/08 11:57:21;;;;;;;7.37;6.55;;;;;;;;;;4151342;34;20536;-62
2021/12/08 11:59:56;;;;;;;6.57;5.70;;;;;;;;;;4151406;34;20287;-61
2021/12/08 12:02:29;;;;;;;7.10;6.30;;;;;;;;;;4151301;34;20620;-61
2021/12/08 12:04:56;;;;;;;7.20;5.97;;;;;;;;;;4151162;34;20111;-62
2021/12/08 12:07:22;;;;;;;8.02;6.20;;;;;;;;;;4151309;34;20111;-63
2021/12/08 12:09:49;;;;;;;7.22;6.22;;;;;;;;;;4151434;34;20107;-63
2021/12/08 12:12:17;;;;;;;8.43;6.53;;;;;;;;;;4151294;34;20095;-62
2021/12/08 12:14:44;;;;;;;6.57;5.97;;;;;;;;;;4151111;34;20119;-63
2021/12/08 12:17:10;;;;;;;7.05;6.22;;;;;;;;;;4138637;34;20536;-63
2021/12/08 12:19:54;;;;;;;7.03;6.12;;;;;;;;;;4150943;34;20146;-62
2021/12/08 12:22:38;;;;;;;6.90;6.12;;;;;;;;;;4151126;34;20188;-64
2021/12/08 12:25:15;;;;;;;8.30;5.90;;;;;;;;;;4151271;34;20127;-64
2021/12/08 12:27:53;;;;;;;7.28;5.87;;;;;;;;;;4151413;34;20127;-64
2021/12/08 12:30:57;;;;;;;8.02;5.97;;;;;;;;;;4127475;34;20111;-64
2021/12/08 12:33:24;;;;;;;6.72;6.03;;;;;;;;;;4151038;34;20118;-64
2021/12/08 12:35:51;;;;;;;7.60;6.70;;;;;;;;;;4151241;34;20108;-64
2021/12/08 12:38:17;;;;;;;7.12;5.87;;;;;;;;;;4151007;34;20091;-63
2021/12/08 12:40:51;;;;;;;6.82;6.10;;;;;;;;;;4138657;34;20663;-65
2021/12/08 12:43:29;;;;;;;7.35;6.12;;;;;;;;;;4150855;34;20099;-65
2021/12/08 12:46:06;;;;;;;7.82;6.60;;;;;;;;;;4150933;34;20114;-64
2021/12/08 12:48:32;;;;;;;6.80;6.12;;;;;;;;;;4150892;34;20198;-64
2021/12/08 12:51:01;;;;;;;8.50;6.07;;;;;;;;;;4150886;34;20211;-68
2021/12/08 12:53:39;;;;;;;7.50;5.97;;;;;;;;;;4150731;34;20110;-63
2021/12/08 12:56:17;;;;;;;6.72;5.87;;;;;;;;;;4150842;34;20117;-67
2021/12/08 12:58:43;;;;;;;6.82;5.97;;;;;;;;;;4150868;34;20219;-67
2021/12/08 13:01:28;;;;;;;7.18;5.53;;;;;;;;;;4150820;34;20165;-64
2021/12/08 13:04:00;;;;;;;7.78;6.95;;;;;;;;;;4150743;34;20119;-64
2021/12/08 13:06:44;;;;;;;8.80;7.65;;;;;;;;;;4150817;34;20115;-64
2021/12/08 13:09:35;;;;;;;9.80;8.30;;;;;;;;;;4150713;34;20464;-64
2021/12/08 13:12:13;;;;;;;7.80;6.10;;;;;;;;;;4150704;34;20126;-64
2021/12/08 13:14:40;;;;;;;8.43;6.95;;;;;;;;;;4150729;34;20181;-64
2021/12/08 13:17:24;;;;;;;8.38;6.30;;;;;;;;;;4150642;34;20111;-64
2021/12/08 13:19:56;;;;;;;10.05;6.95;;;;;;;;;;4150992;34;20177;-64
2021/12/08 13:22:44;;;;;;;8.27;6.43;;;;;;;;;;4150630;34;20558;-64
2021/12/08 13:26:18;;;;;;;7.03;6.22;;;;;;;;;;4150586;34;20108;-64
2021/12/08 13:28:39;;;;;;;6.85;5.62;;;;;;;;;;4138047;34;20210;-64
2021/12/08 13:31:26;;;;;;;7.25;5.80;;;;;;;;;;4150900;34;20123;-64
2021/12/08 13:33:52;;;;;;;6.97;5.72;;;;;;;;;;4150642;34;20099;-64
2021/12/08 13:36:21;;;;;;;5.53;4.47;;;;;;;;;;4150475;34;20122;-64
2021/12/08 13:38:53;;;;;;;5.90;5.18;;;;;;;;;;4150533;34;20117;-67
2021/12/08 13:41:20;;;;;;;6.37;5.45;;;;;;;;;;4150802;34;20135;-67
2021/12/08 13:43:50;;;;;;;6.32;5.00;;;;;;;;;;4150416;34;20130;-67
2021/12/08 13:46:39;;;;;;;7.87;6.05;;;;;;;;;;4150497;34;20118;-66
2021/12/08 13:49:20;;;;;;;5.78;5.22;;;;;;;;;;4150432;34;20107;-67
2021/12/08 13:52:18;;;;;;;7.32;6.07;;;;;;;;;;4150455;34;20213;-67
2021/12/08 13:54:49;;;;;;;8.05;6.25;;;;;;;;;;4150344;34;20123;-67
2021/12/08 13:57:48;;;;;;;8.55;6.40;;;;;;;;;;4150383;34;20108;-67
2021/12/08 14:00:16;;;;;;;7.37;5.28;;;;;;;;;;4150272;34;20114;-67
2021/12/08 14:02:47;;;;;;;7.43;6.05;;;;;;;;;;4150252;34;20123;-69
2021/12/08 14:05:24;;;;;;;6.03;5.43;;;;;;;;;;4137522;34;20561;-69
2021/12/08 14:08:09;;;;;;;7.28;6.03;;;;;;;;;;4149883;34;20533;-68
2021/12/08 14:10:38;;;;;;;6.00;5.40;;;;;;;;;;4150236;34;20134;-67
2021/12/08 14:13:10;;;;;;;7.25;5.90;;;;;;;;;;4150221;34;20122;-68
2021/12/08 14:15:45;;;;;;;9.15;5.75;;;;;;;;;;4150079;34;20114;-68
2021/12/08 14:18:22;;;;;;;6.95;5.50;;;;;;;;;;4150154;34;20110;-69
2021/12/08 14:20:59;;;;;;;6.85;5.47;;;;;;;;;;4149954;34;20119;-69
2021/12/08 14:23:28;;;;;;;7.07;5.60;;;;;;;;;;4149985;34;20110;-68
2021/12/08 14:25:57;;;;;;;7.03;5.87;;;;;;;;;;4150092;34;20099;-67
2021/12/08 14:28:26;;;;;;;7.97;6.68;;;;;;;;;;4149986;34;20123;-68
2021/12/08 14:30:52;;;;;;;9.13;6.70;;;;;;;;;;4150074;34;20134;-68
2021/12/08 14:33:23;;;;;;;9.20;7.07;;;;;;;;;;4149920;34;20492;-67
2021/12/08 14:35:57;;;;;;;8.35;6.70;;;;;;;;;;4150122;34;20221;-65
2021/12/08 14:38:23;;;;;;;9.40;7.15;;;;;;;;;;4150229;34;20122;-66
2021/12/08 14:40:50;;;;;;;7.78;6.90;;;;;;;;;;4149881;34;20130;-69
2021/12/08 14:43:35;;;;;;;9.60;7.43;;;;;;;;;;4149799;34;20130;-67
2021/12/08 14:46:12;;;;;;;9.13;7.93;;;;;;;;;;4149873;34;20125;-66
2021/12/08 14:48:45;;;;;;;10.10;7.82;;;;;;;;;;4149900;34;20122;-70
2021/12/08 14:51:11;;;;;;;9.65;7.30;;;;;;;;;;4149892;34;20206;-65
2021/12/08 14:53:37;;;;;;;11.07;7.93;;;;;;;;;;4137153;34;20093;-68
2021/12/08 14:56:10;;;;;;;10.55;8.30;;;;;;;;;;4149778;34;20114;-63
2021/12/08 14:58:38;;;;;;;12.32;8.75;;;;;;;;;;4148575;34;20130;-63
2021/12/08 15:01:14;;;;;;;10.77;8.82;;;;;;;;;;4149261;34;20118;-63
2021/12/08 15:03:42;;;;;;;10.43;8.50;;;;;;;;;;4136835;34;20118;-62
2021/12/08 15:06:24;;;;;;;12.70;10.10;;;;;;;;;;4135623;34;20108;-64
2021/12/08 15:08:50;;;;;;;12.40;10.50;;;;;;;;;;4146507;34;20119;-64
2021/12/08 15:11:19;;;;;;;12.77;9.40;;;;;;;;;;4134556;34;20122;-64
2021/12/08 15:13:46;;;;;;;11.82;9.45;;;;;;;;;;4147204;34;20123;-64
2021/12/08 15:16:18;;;;;;;12.18;9.85;;;;;;;;;;4147194;34;20617;-64
2021/12/08 15:18:46;;;;;;;11.30;8.80;;;;;;;;;;4135807;34;20247;-64
2021/12/08 15:21:13;;;;;;;12.52;9.18;;;;;;;;;;4149330;34;20104;-64
2021/12/08 15:23:50;;;;;;;14.35;9.90;;;;;;;;;;4149385;34;20122;-65
2021/12/08 15:26:19;;;;;;;13.90;9.40;;;;;;;;;;4149908;34;20186;-65
2021/12/08 15:28:46;;;;;;;13.40;10.57;;;;;;;;;;4149604;34;20577;-64
2021/12/08 15:31:13;;;;;;;12.98;9.10;;;;;;;;;;4150064;34;20107;-64
2021/12/08 15:33:40;;;;;;;11.32;9.65;;;;;;;;;;4137187;34;20111;-64
2021/12/08 15:36:12;;;;;;;12.32;9.57;;;;;;;;;;4137226;34;20103;-65
2021/12/08 15:38:44;;;;;;;12.90;9.63;;;;;;;;;;4149702;34;20095;-65
2021/12/08 15:41:15;;;;;;;11.00;9.60;;;;;;;;;;4149883;34;20547;-64
2021/12/08 15:43:41;;;;;;;15.23;9.55;;;;;;;;;;4149705;34;20200;-62
2021/12/08 15:46:09;;;;;;;11.93;10.07;;;;;;;;;;4149974;34;20531;-62
2021/12/08 15:48:35;;;;;;;11.85;9.13;;;;;;;;;;4149789;34;20135;-63
2021/12/08 15:51:06;;;;;;;11.05;8.30;;;;;;;;;;4148633;34;20122;-63
2021/12/08 15:53:41;;;;;;;14.30;9.68;;;;;;;;;;4149329;34;20125;-64
2021/12/08 15:56:16;;;;;;;11.82;8.80;;;;;;;;;;4149601;34;20539;-63
2021/12/08 15:58:45;;;;;;;11.18;8.90;;;;;;;;;;4149107;34;20134;-64
2021/12/08 16:01:16;;;;;;;10.90;9.10;;;;;;;;;;4142363;34;20557;-64
2021/12/08 16:03:52;;;;;;;13.07;9.65;;;;;;;;;;4121918;34;20120;-63
2021/12/08 16:06:23;;;;;;;12.15;8.88;;;;;;;;;;4121489;34;20519;-62